Time;durP1;ratioP1;P1;durP2;ratioP2;P2;SDS_P1;SDS_P2;PMS_P1;PMS_P2;Temp;Humidity;BMP_temperature;BMP_pressure;BME280_temperature;BME280_humidity;BME280_pressure;Samples;Min_cycle;Max_cycle;Signal;HPM_P1;HPM_P2
2022/11/12 00:01:36;;;;;;;27.60;20.37;;;;;;;8.51;97.44;101105.47;1772176;80;21073;-71
2022/11/12 00:04:23;;;;;;;28.15;20.82;;;;;;;8.49;97.48;101108.86;1774864;79;21038;-72
2022/11/12 00:07:07;;;;;;;26.77;20.43;;;;;;;8.52;97.52;101104.96;1773451;80;20957;-74
2022/11/12 00:09:53;;;;;;;26.52;20.05;;;;;;;8.51;97.24;101110.84;1773385;80;21043;-67
2022/11/12 00:12:38;;;;;;;26.50;19.27;;;;;;;8.44;97.09;101109.97;1771125;80;21015;-70
2022/11/12 00:15:25;;;;;;;28.80;20.40;;;;;;;8.38;97.15;101109.97;1773086;80;21150;-69
2022/11/12 00:18:12;;;;;;;20.52;18.07;;;;;;;8.29;97.39;101108.81;1772379;80;21052;-72
2022/11/12 00:20:57;;;;;;;24.30;19.98;;;;;;;8.26;97.67;101114.52;1772805;80;20987;-71
2022/11/12 00:23:42;;;;;;;22.90;17.80;;;;;;;8.24;97.79;101113.91;1771443;80;21017;-71
2022/11/12 00:26:27;;;;;;;30.43;18.30;;;;;;;8.21;98.04;101117.48;1754189;80;21682;-71
2022/11/12 00:29:12;;;;;;;31.07;17.95;;;;;;;8.14;98.22;101116.64;1710898;83;21115;-72
2022/11/12 00:31:57;;;;;;;25.60;18.57;;;;;;;8.11;98.50;101117.84;1741909;82;21030;-73
2022/11/12 00:34:43;;;;;;;20.85;17.00;;;;;;;8.10;98.70;101111.37;1726594;82;21236;-72
2022/11/12 00:37:29;;;;;;;21.65;16.77;;;;;;;8.08;98.91;101114.75;1717634;82;20985;-71
2022/11/12 00:40:15;;;;;;;29.50;16.95;;;;;;;8.09;99.21;101109.70;1772570;80;21083;-68
2022/11/12 00:43:00;;;;;;;22.30;18.48;;;;;;;8.09;99.43;101114.55;1764922;80;21889;-69
2022/11/12 00:45:46;;;;;;;24.45;18.52;;;;;;;8.12;99.54;101122.70;1754960;81;21019;-73
2022/11/12 00:48:31;;;;;;;22.73;16.52;;;;;;;8.10;99.52;101122.92;1755183;81;21031;-71
2022/11/12 00:51:15;;;;;;;25.82;17.77;;;;;;;8.09;99.64;101125.78;1743037;81;21068;-70
2022/11/12 00:54:01;;;;;;;30.12;19.05;;;;;;;8.05;99.66;101123.19;1710814;82;21487;-70
2022/11/12 00:56:47;;;;;;;28.25;17.50;;;;;;;8.05;100.00;101124.53;1740452;82;21227;-72
2022/11/12 00:59:32;;;;;;;27.22;17.37;;;;;;;8.05;100.00;101113.81;1718668;82;20959;-72
2022/11/12 01:02:19;;;;;;;25.60;19.10;;;;;;;8.09;100.00;101115.90;1711630;83;21127;-69
2022/11/12 01:05:06;;;;;;;20.77;17.42;;;;;;;8.11;100.00;101108.47;1697774;82;21043;-67
2022/11/12 01:07:51;;;;;;;26.10;17.50;;;;;;;8.12;100.00;101109.30;1698442;83;21568;-68
2022/11/12 01:10:38;;;;;;;23.38;17.07;;;;;;;8.12;100.00;101112.81;1746079;80;21350;-69
2022/11/12 01:13:23;;;;;;;23.60;16.55;;;;;;;8.11;100.00;101113.00;1752358;79;20991;-68
2022/11/12 01:16:14;;;;;;;22.50;17.23;;;;;;;8.07;100.00;101105.05;1767553;81;20969;-67
2022/11/12 01:19:01;;;;;;;33.63;19.83;;;;;;;8.06;100.00;101102.88;1744349;79;21015;-68
2022/11/12 01:21:47;;;;;;;26.65;18.52;;;;;;;8.13;100.00;101103.75;1766280;79;21558;-67
2022/11/12 01:24:33;;;;;;;26.93;19.17;;;;;;;8.22;100.00;101111.93;1775728;79;21068;-75
2022/11/12 01:27:18;;;;;;;30.15;21.35;;;;;;;8.29;100.00;101107.95;1782407;79;21005;-67
2022/11/12 01:30:06;;;;;;;26.50;20.02;;;;;;;8.34;100.00;101108.21;1769917;79;21651;-69
2022/11/12 01:32:51;;;;;;;29.07;20.68;;;;;;;8.32;100.00;101103.55;1702783;83;21059;-69
2022/11/12 01:35:36;;;;;;;24.90;18.90;;;;;;;8.27;99.62;101105.46;1708961;81;21004;-68
2022/11/12 01:38:20;;;;;;;27.40;18.23;;;;;;;8.22;99.64;101107.08;1752730;81;21127;-68
2022/11/12 01:41:06;;;;;;;25.95;18.70;;;;;;;8.19;99.79;101106.98;1767532;79;21026;-69
2022/11/12 01:44:14;;;;;;;28.20;17.82;;;;;;;8.20;99.90;101110.49;1742641;81;20989;-69
2022/11/12 01:47:15;;;;;;;20.12;17.15;;;;;;;8.23;99.94;101113.59;1739602;80;21058;-68
2022/11/12 01:50:17;;;;;;;23.80;20.10;;;;;;;8.27;99.87;101113.50;1773578;79;21493;-72
2022/11/12 01:53:05;;;;;;;20.43;16.80;;;;;;;8.26;99.75;101105.65;1786501;79;21132;-66
2022/11/12 01:55:51;;;;;;;23.22;18.00;;;;;;;8.24;99.62;101092.47;1751346;79;21731;-70
2022/11/12 01:58:36;;;;;;;24.35;18.30;;;;;;;8.20;99.59;101093.07;1760722;81;21007;-68
2022/11/12 02:01:22;;;;;;;26.12;17.92;;;;;;;8.16;99.67;101092.62;1792622;79;20950;-68
2022/11/12 02:04:07;;;;;;;29.50;18.12;;;;;;;8.14;99.87;101094.69;1769567;79;21027;-67
2022/11/12 02:06:52;;;;;;;32.17;19.40;;;;;;;8.18;100.00;101088.41;1774826;79;21107;-66
2022/11/12 02:09:37;;;;;;;26.12;19.45;;;;;;;8.27;100.00;101087.20;1769016;79;21028;-67
2022/11/12 02:15:28;;;;;;;25.48;20.00;;;;;;;8.25;99.74;101083.88;1778212;79;21059;-66
2022/11/12 02:18:13;;;;;;;27.90;19.25;;;;;;;8.27;99.78;101078.66;1786519;79;21017;-69
2022/11/12 02:21:07;;;;;;;28.05;21.25;;;;;;;8.26;99.62;101085.55;1778525;79;21280;-68
2022/11/12 02:24:16;;;;;;;31.25;21.37;;;;;;;8.28;99.57;101090.20;1782380;79;20967;-68
2022/11/12 02:27:04;;;;;;;26.00;18.73;;;;;;;8.31;99.55;101090.66;1787903;79;20979;-69
2022/11/12 02:29:49;;;;;;;27.93;20.72;;;;;;;8.36;99.68;101092.73;1718165;81;21534;-67
2022/11/12 02:32:36;;;;;;;26.48;19.70;;;;;;;8.41;99.40;101101.51;1789336;79;20986;-69
2022/11/12 02:35:22;;;;;;;27.60;19.85;;;;;;;8.38;99.08;101106.77;1769825;79;21162;-68
2022/11/12 02:38:07;;;;;;;28.80;20.17;;;;;;;8.39;98.95;101103.59;1787068;79;21089;-69
2022/11/12 02:40:53;;;;;;;36.73;21.40;;;;;;;8.34;98.66;101100.17;1780281;79;20945;-66
2022/11/12 02:43:39;;;;;;;29.05;23.00;;;;;;;8.29;98.55;101097.23;1770032;79;21008;-73
2022/11/12 02:46:24;;;;;;;25.10;18.90;;;;;;;8.23;98.49;101094.83;1769109;79;21020;-68
2022/11/12 02:49:09;;;;;;;24.85;19.12;;;;;;;8.22;98.58;101097.19;1719029;80;21121;-67
2022/11/12 02:51:54;;;;;;;25.88;19.52;;;;;;;8.23;98.56;101096.68;1747899;81;21026;-69
2022/11/12 02:54:39;;;;;;;30.20;17.45;;;;;;;8.21;98.52;101090.67;1786810;79;21020;-69
2022/11/12 02:57:26;;;;;;;26.50;17.30;;;;;;;8.17;98.58;101088.92;1744145;79;20971;-69
2022/11/12 03:00:12;;;;;;;25.45;17.67;;;;;;;8.15;98.65;101094.98;1762262;79;21449;-68
2022/11/12 03:03:00;;;;;;;28.60;19.55;;;;;;;8.14;98.71;101096.54;1788195;79;22113;-68
2022/11/12 03:05:56;;;;;;;23.40;17.35;;;;;;;8.11;98.59;101089.71;1781217;79;21011;-69
2022/11/12 03:08:42;;;;;;;25.35;16.95;;;;;;;8.09;98.74;101094.97;1765286;79;21555;-67
2022/11/12 03:11:27;;;;;;;24.02;17.77;;;;;;;8.10;98.87;101089.42;1761330;79;21110;-67
2022/11/12 03:14:12;;;;;;;25.97;18.77;;;;;;;8.10;98.95;101096.62;1764990;79;21065;-71
2022/11/12 03:16:57;;;;;;;24.40;17.90;;;;;;;8.09;99.11;101086.93;1775810;79;21030;-70
2022/11/12 03:19:42;;;;;;;22.45;17.17;;;;;;;8.09;99.21;101090.95;1765930;79;21614;-72
2022/11/12 03:22:29;;;;;;;26.45;18.90;;;;;;;8.08;99.17;101087.95;1780846;79;20974;-66
2022/11/12 03:25:13;;;;;;;23.22;16.10;;;;;;;8.04;99.18;101082.68;1763475;79;21014;-68
2022/11/12 03:28:08;;;;;;;24.82;17.82;;;;;;;8.00;99.38;101084.94;1776945;79;21109;-68
2022/11/12 03:30:57;;;;;;;26.02;17.37;;;;;;;8.04;99.50;101092.05;1764221;79;21232;-69
2022/11/12 03:33:44;;;;;;;27.05;18.70;;;;;;;8.10;99.59;101088.59;1764750;79;21018;-69
2022/11/12 03:36:28;;;;;;;26.68;18.07;;;;;;;8.10;99.47;101091.27;1765226;79;21495;-69
2022/11/12 03:39:14;;;;;;;20.35;16.67;;;;;;;8.07;99.26;101094.33;1768715;79;21064;-70
2022/11/12 03:41:59;;;;;;;19.07;16.65;;;;;;;7.99;99.36;101082.45;1775798;79;21011;-69
2022/11/12 03:44:44;;;;;;;21.15;14.35;;;;;;;7.95;99.49;101089.23;1771202;79;21287;-69
2022/11/12 03:47:29;;;;;;;27.05;17.10;;;;;;;7.93;99.81;101097.97;1743989;79;21043;-68
2022/11/12 03:50:15;;;;;;;18.65;15.83;;;;;;;7.94;100.00;101094.27;1772066;79;20994;-68
2022/11/12 03:53:00;;;;;;;20.05;15.85;;;;;;;7.99;100.00;101100.69;1752607;79;21501;-67
2022/11/12 03:55:46;;;;;;;20.90;16.70;;;;;;;8.05;100.00;101101.25;1744463;79;20986;-68
2022/11/12 03:58:31;;;;;;;21.33;16.25;;;;;;;8.07;100.00;101097.01;1783672;79;21230;-68
2022/11/12 04:01:16;;;;;;;27.52;18.65;;;;;;;8.08;100.00;101093.31;1764754;79;21495;-69
2022/11/12 04:04:01;;;;;;;23.67;15.35;;;;;;;8.07;100.00;101095.16;1763812;79;20955;-69
2022/11/12 04:09:49;;;;;;;;;;;;;;;8.07;100.00;101084.44;1750846;79;21034;-70
2022/11/12 04:15:38;;;;;;;22.77;16.40;;;;;;;8.15;100.00;101077.56;1773242;80;26704;-69
2022/11/12 04:21:55;;;;;;;21.65;15.28;;;;;;;8.28;100.00;101084.84;1742803;82;21689;-69
2022/11/12 04:27:45;;;;;;;25.88;16.40;;;;;;;8.31;99.55;101077.25;1741747;80;21255;-70
2022/11/12 04:30:30;;;;;;;21.82;16.75;;;;;;;8.33;99.39;101074.38;1735347;81;20991;-68
2022/11/12 04:33:15;;;;;;;28.12;17.98;;;;;;;8.38;99.32;101077.80;1772601;80;21102;-69
2022/11/12 04:36:00;;;;;;;26.37;19.17;;;;;;;8.40;99.08;101073.87;1772450;79;21054;-69
2022/11/12 04:38:45;;;;;;;32.10;21.50;;;;;;;8.38;98.50;101080.48;1772829;79;20959;-68
2022/11/12 04:47:40;;;;;;;30.43;20.10;;;;;;;8.30;98.17;101054.66;1780902;79;20953;-69
2022/11/12 04:50:25;;;;;;;27.80;19.48;;;;;;;8.26;98.18;101046.17;1755874;80;21003;-69
2022/11/12 04:53:10;;;;;;;32.10;19.92;;;;;;;8.24;98.29;101048.75;1783832;79;21098;-69
2022/11/12 04:55:57;;;;;;;24.12;17.35;;;;;;;8.26;98.37;101047.51;1772992;79;21571;-69
2022/11/12 04:58:43;;;;;;;28.07;18.55;;;;;;;8.26;98.26;101060.91;1786259;79;21093;-69
2022/11/12 05:01:28;;;;;;;23.38;18.07;;;;;;;8.24;98.31;101060.30;1765387;79;21070;-68
2022/11/12 05:04:14;;;;;;;29.50;21.65;;;;;;;8.22;98.40;101070.89;1779330;79;21270;-70
2022/11/12 05:07:00;;;;;;;27.22;17.70;;;;;;;8.21;98.49;101078.62;1793153;79;21206;-70
2022/11/12 05:09:45;;;;;;;28.60;19.73;;;;;;;8.22;98.56;101068.22;1729981;80;22062;-69
2022/11/12 05:12:30;;;;;;;27.93;18.65;;;;;;;8.24;98.58;101064.33;1773148;80;20988;-70
2022/11/12 05:15:15;;;;;;;28.47;18.37;;;;;;;8.25;98.66;101073.16;1773568;79;22250;-69
2022/11/12 05:18:01;;;;;;;24.92;18.48;;;;;;;8.27;98.68;101077.31;1776656;79;20992;-71
2022/11/12 05:20:50;;;;;;;32.73;19.37;;;;;;;8.29;98.51;101081.14;1785780;79;21002;-70
2022/11/12 05:23:34;;;;;;;29.50;18.15;;;;;;;8.27;98.53;101082.67;1769546;79;21160;-70
2022/11/12 05:26:20;;;;;;;36.25;20.20;;;;;;;8.25;98.40;101091.92;1773123;79;21021;-68
2022/11/12 05:29:05;;;;;;;25.25;17.12;;;;;;;8.19;98.44;101088.22;1761961;79;21023;-72
2022/11/12 05:31:50;;;;;;;25.08;17.17;;;;;;;8.17;98.82;101095.63;1771968;79;21026;-74
2022/11/12 05:34:36;;;;;;;25.90;17.10;;;;;;;8.24;99.08;101099.68;1786188;79;20996;-74
2022/11/12 05:37:22;;;;;;;33.95;19.48;;;;;;;8.27;99.00;101103.29;1778870;79;21329;-73
2022/11/12 05:40:08;;;;;;;27.13;19.48;;;;;;;8.25;99.00;101099.97;1742635;82;21018;-75
2022/11/12 05:42:53;;;;;;;27.87;18.55;;;;;;;8.27;99.18;101102.78;1737392;80;21460;-74
2022/11/12 05:45:44;;;;;;;22.30;16.87;;;;;;;8.29;99.09;101104.80;1775331;79;20995;-79
2022/11/12 05:48:29;;;;;;;25.52;16.87;;;;;;;8.29;99.07;101090.05;1784505;79;21018;-73
2022/11/12 05:51:14;;;;;;;24.32;17.52;;;;;;;8.28;99.19;101087.52;1759105;81;21245;-72
2022/11/12 05:54:00;;;;;;;32.55;23.83;;;;;;;8.27;99.28;101099.27;1748905;79;21127;-69
2022/11/12 05:56:45;;;;;;;35.40;25.08;;;;;;;8.29;99.43;101103.93;1793240;79;21220;-74
2022/11/12 05:59:32;;;;;;;28.60;19.75;;;;;;;8.32;99.60;101099.53;1789830;79;21002;-76
2022/11/12 06:02:17;;;;;;;28.70;19.00;;;;;;;8.35;99.71;101096.95;1784833;79;21023;-73
2022/11/12 06:05:02;;;;;;;26.10;18.82;;;;;;;8.37;99.65;101096.25;1794658;79;21192;-73
2022/11/12 06:07:47;;;;;;;19.27;15.65;;;;;;;8.37;99.65;101093.56;1769935;79;20965;-74
2022/11/12 06:10:32;;;;;;;27.20;19.02;;;;;;;8.36;99.65;101081.18;1792153;79;21075;-74
2022/11/12 06:13:22;;;;;;;27.27;17.30;;;;;;;8.33;99.60;101066.34;1753490;79;21478;-72
2022/11/12 06:16:08;;;;;;;27.22;20.15;;;;;;;8.34;99.82;101067.17;1751013;79;20951;-75
2022/11/12 06:18:53;;;;;;;29.52;19.67;;;;;;;8.36;99.81;101076.65;1769474;79;21943;-72
2022/11/12 06:21:39;;;;;;;23.80;18.57;;;;;;;8.40;99.93;101074.38;1770324;79;20988;-76
2022/11/12 06:24:27;;;;;;;25.68;18.90;;;;;;;8.43;99.85;101080.70;1767592;79;21023;-73
2022/11/12 06:27:13;;;;;;;28.05;19.17;;;;;;;8.38;99.84;101078.63;1748237;79;21610;-75
2022/11/12 10:44:50;;;;;;;15.98;11.05;;;;;;;12.26;83.75;100994.58;1726435;80;22797;-68
2022/11/12 10:47:41;;;;;;;14.58;11.55;;;;;;;12.32;82.71;100990.14;1733164;81;20964;-69
2022/11/12 10:50:36;;;;;;;14.93;10.80;;;;;;;12.36;81.31;100981.36;1733175;81;21160;-69
2022/11/12 10:53:38;;;;;;;15.93;10.82;;;;;;;12.39;80.63;100972.80;1737547;81;21084;-69
2022/11/12 10:56:31;;;;;;;13.38;11.22;;;;;;;12.42;80.51;100981.77;1764847;80;20991;-71
2022/11/12 10:59:22;;;;;;;13.95;10.20;;;;;;;12.45;80.35;100988.08;1745832;80;21023;-69
2022/11/12 11:02:17;;;;;;;13.90;10.50;;;;;;;12.52;80.26;100976.64;1773894;80;21000;-68
2022/11/12 11:05:36;;;;;;;14.13;11.78;;;;;;;12.60;80.24;100987.13;1730498;80;21287;-70
2022/11/12 11:08:43;;;;;;;14.80;11.38;;;;;;;12.69;79.53;100984.91;1719886;82;20990;-70
2022/11/12 11:11:30;;;;;;;15.68;12.10;;;;;;;12.72;79.36;100988.48;1721359;80;20939;-68
2022/11/12 11:14:29;;;;;;;16.52;11.18;;;;;;;12.76;78.74;100985.60;1738969;80;21030;-68
2022/11/12 11:17:17;;;;;;;18.10;11.15;;;;;;;12.81;78.47;100976.80;1738062;80;21076;-67
2022/11/12 11:20:07;;;;;;;16.30;11.55;;;;;;;12.83;77.75;101003.06;1738740;80;21248;-69
2022/11/12 11:22:55;;;;;;;16.42;11.78;;;;;;;12.78;77.78;100980.80;1722544;80;21018;-68
2022/11/12 11:25:42;;;;;;;20.08;12.20;;;;;;;12.73;78.18;100984.73;1723266;80;20988;-69
2022/11/12 11:28:48;;;;;;;13.35;11.73;;;;;;;12.71;78.69;100990.88;1743692;80;21448;-69
2022/11/12 11:31:49;;;;;;;13.48;11.60;;;;;;;12.73;78.79;100979.33;1740387;80;21121;-69
2022/11/12 11:35:14;;;;;;;15.60;11.53;;;;;;;12.77;78.79;100989.95;1708523;82;22218;-68
2022/11/12 11:38:10;;;;;;;15.00;10.80;;;;;;;12.78;78.51;100974.05;1711316;82;21064;-70
2022/11/12 11:41:29;;;;;;;18.90;11.75;;;;;;;12.79;77.72;100977.58;1709472;82;21560;-72
2022/11/12 11:44:31;;;;;;;17.30;10.88;;;;;;;12.79;77.39;100985.69;1712916;82;21020;-71
2022/11/12 11:47:38;;;;;;;15.95;10.63;;;;;;;12.74;77.25;100985.03;1722411;82;21148;-71
2022/11/12 11:50:30;;;;;;;13.55;9.45;;;;;;;12.72;77.19;100975.50;1722395;82;21149;-72
2022/11/12 11:53:23;;;;;;;12.63;11.25;;;;;;;12.75;76.93;100973.19;1721143;82;21044;-73
2022/11/12 11:56:16;;;;;;;15.28;11.05;;;;;;;12.77;76.84;100971.06;1714774;82;21001;-73
2022/11/12 11:59:30;;;;;;;15.63;13.30;;;;;;;12.84;76.84;100965.56;1721239;82;20961;-76
2022/11/12 12:02:49;;;;;;;14.30;10.25;;;;;;;12.83;76.76;100971.48;1716082;82;20994;-79
2022/11/12 12:06:02;;;;;;;15.00;11.33;;;;;;;12.80;76.60;100961.16;1697367;83;21076;-71
2022/11/12 12:09:14;;;;;;;14.03;11.63;;;;;;;12.76;76.85;100959.95;1721409;82;20934;-72
2022/11/12 12:12:05;;;;;;;12.73;11.40;;;;;;;12.72;76.85;100957.43;1721024;82;20946;-74
2022/11/12 12:14:59;;;;;;;19.32;12.80;;;;;;;12.66;77.22;100949.73;1721361;82;21042;-70
2022/11/12 12:18:02;;;;;;;15.15;12.45;;;;;;;12.63;77.57;100956.95;1717318;81;21076;-70
2022/11/12 12:20:59;;;;;;;16.82;10.98;;;;;;;12.59;77.93;100946.86;1723112;82;21242;-69
2022/11/12 12:23:55;;;;;;;18.50;11.22;;;;;;;12.54;78.21;100950.25;1723253;82;21529;-71
2022/11/12 12:26:51;;;;;;;18.95;11.40;;;;;;;12.53;78.60;100949.13;1714837;82;21030;-68
2022/11/12 12:29:48;;;;;;;15.72;10.98;;;;;;;12.53;78.58;100941.85;1715992;82;21138;-70
2022/11/12 12:32:42;;;;;;;11.97;9.75;;;;;;;12.53;78.35;100947.78;1699896;82;21159;-68
2022/11/12 12:35:35;;;;;;;13.70;11.93;;;;;;;12.49;78.41;100937.16;1713076;82;21157;-68
2022/11/12 12:38:41;;;;;;;15.28;11.38;;;;;;;12.44;78.59;100950.52;1710160;82;21111;-68
2022/11/12 12:41:33;;;;;;;13.95;10.98;;;;;;;12.42;78.67;100940.50;1711609;83;21032;-68
2022/11/12 12:44:18;;;;;;;14.47;10.00;;;;;;;12.39;78.74;100936.89;1708893;82;21053;-67
2022/11/12 12:47:04;;;;;;;15.90;12.93;;;;;;;12.36;78.89;100934.14;1710078;82;21701;-68
2022/11/12 12:49:51;;;;;;;16.02;11.12;;;;;;;12.39;78.86;100928.80;1712586;82;20996;-69
2022/11/12 12:53:00;;;;;;;20.65;11.40;;;;;;;12.41;78.81;100930.75;1709114;82;22867;-73
2022/11/12 12:55:49;;;;;;;17.35;11.85;;;;;;;12.41;78.82;100923.48;1692029;82;21015;-73
2022/11/12 12:58:43;;;;;;;18.77;12.43;;;;;;;12.40;78.67;100933.15;1740642;82;21030;-74
2022/11/12 13:01:33;;;;;;;16.42;10.70;;;;;;;12.36;78.75;100938.19;1711173;82;21115;-73
2022/11/12 13:04:18;;;;;;;15.23;11.05;;;;;;;12.33;78.79;100927.84;1712226;82;21519;-75
2022/11/12 13:07:04;;;;;;;12.85;11.55;;;;;;;12.32;78.85;100926.75;1668632;83;20999;-73
2022/11/12 13:09:50;;;;;;;14.30;12.82;;;;;;;12.31;79.05;100929.14;1711274;82;21040;-73
2022/11/12 13:13:09;;;;;;;13.68;11.68;;;;;;;12.30;79.19;100915.35;1699073;82;21147;-81
2022/11/12 13:15:56;;;;;;;15.55;12.28;;;;;;;12.29;79.17;100940.67;1709379;82;21119;-79
2022/11/12 13:18:53;;;;;;;14.38;12.07;;;;;;;12.25;79.37;100918.74;1682589;84;22158;-75
2022/11/12 13:21:39;;;;;;;17.77;11.15;;;;;;;12.23;79.56;100918.97;1701213;82;21019;-75
2022/11/12 13:24:52;;;;;;;14.40;11.55;;;;;;;12.24;79.74;100916.56;1671641;82;21097;-76
2022/11/12 13:27:47;;;;;;;14.28;12.65;;;;;;;12.26;79.76;100920.92;1674173;85;21004;-74
2022/11/12 13:30:38;;;;;;;14.58;11.35;;;;;;;12.27;79.75;100919.34;1700551;82;21567;-76
2022/11/12 13:33:31;;;;;;;25.25;12.63;;;;;;;12.30;79.62;100918.05;1711546;82;21604;-76
2022/11/12 13:36:23;;;;;;;19.32;12.47;;;;;;;12.31;79.64;100922.40;1711192;83;21017;-76
2022/11/12 13:39:17;;;;;;;23.98;14.05;;;;;;;12.30;79.61;100916.70;1710612;83;21602;-75
2022/11/12 13:45:19;;;;;;;16.20;11.03;;;;;;;12.29;79.62;100923.14;1713058;83;21048;-75
2022/11/12 13:48:07;;;;;;;17.98;12.30;;;;;;;12.27;79.65;100919.88;1713607;83;21213;-75
2022/11/12 13:50:56;;;;;;;18.40;12.90;;;;;;;12.26;79.72;100917.70;1712996;82;21031;-76
2022/11/12 13:53:43;;;;;;;16.37;11.28;;;;;;;12.25;79.77;100910.65;1710089;82;21577;-77
2022/11/12 13:56:32;;;;;;;22.82;13.10;;;;;;;12.23;79.87;100927.05;1711782;83;21031;-74
2022/11/12 13:59:20;;;;;;;15.72;11.48;;;;;;;12.21;79.90;100914.34;1723666;82;21074;-77
2022/11/12 14:02:19;;;;;;;17.35;12.10;;;;;;;12.20;79.83;100918.61;1725757;82;21157;-74
2022/11/12 14:05:16;;;;;;;19.95;12.80;;;;;;;12.18;79.93;100918.03;1730135;82;21046;-74
2022/11/12 14:08:07;;;;;;;14.93;11.60;;;;;;;12.16;79.92;100911.52;1683653;83;21033;-72
2022/11/12 14:11:29;;;;;;;14.30;12.00;;;;;;;12.14;79.73;100911.43;1712882;82;21042;-72
2022/11/12 14:14:46;;;;;;;15.35;11.57;;;;;;;12.08;79.67;100913.72;1716071;82;21209;-73
2022/11/12 14:17:49;;;;;;;14.60;11.08;;;;;;;12.00;79.62;100918.89;1678510;85;21083;-72
2022/11/12 14:20:39;;;;;;;13.50;10.30;;;;;;;11.98;79.87;100913.45;1711831;83;21034;-73
2022/11/12 14:23:24;;;;;;;14.23;11.50;;;;;;;11.98;80.02;100913.45;1708842;82;21513;-72
2022/11/12 14:26:11;;;;;;;14.03;11.60;;;;;;;11.99;80.00;100911.84;1713940;82;21126;-73
2022/11/12 14:28:56;;;;;;;16.82;13.40;;;;;;;12.01;79.89;100939.94;1709743;82;21057;-74
2022/11/12 19:08:34;;;;;;;8.98;7.87;;;;;;;10.51;100.00;100894.23;1791214;77;22835;-79
2022/11/12 19:11:20;;;;;;;10.48;6.72;;;;;;;10.51;100.00;100911.72;1755628;80;20980;-78
2022/11/12 19:14:07;;;;;;;9.65;7.75;;;;;;;10.56;100.00;100894.40;1740809;81;20948;-77
2022/11/12 19:16:53;;;;;;;8.80;7.47;;;;;;;10.61;100.00;100911.23;1735095;80;20964;-78
2022/11/12 19:19:38;;;;;;;7.80;7.00;;;;;;;10.66;100.00;100908.70;1736683;81;21013;-80
2022/11/12 19:22:23;;;;;;;9.55;6.62;;;;;;;10.69;100.00;100902.90;1724802;81;21011;-77
2022/11/12 19:25:08;;;;;;;11.00;6.55;;;;;;;10.70;100.00;100909.38;1716188;82;21028;-80
2022/11/12 19:27:53;;;;;;;8.10;6.60;;;;;;;10.73;100.00;100908.96;1715613;81;21501;-77
2022/11/12 19:30:40;;;;;;;10.53;7.17;;;;;;;10.76;100.00;100914.41;1725300;82;20999;-78
2022/11/12 19:33:24;;;;;;;6.97;5.85;;;;;;;10.77;100.00;100910.68;1696674;82;21032;-80
2022/11/12 19:36:12;;;;;;;8.38;7.50;;;;;;;10.79;100.00;100904.56;1772307;80;21108;-80
2022/11/12 19:39:00;;;;;;;8.38;5.62;;;;;;;10.81;100.00;100910.02;1766988;80;21071;-79
2022/11/12 19:41:45;;;;;;;8.68;7.22;;;;;;;10.82;100.00;100894.17;1731156;82;23247;-81
2022/11/12 19:44:30;;;;;;;8.65;5.87;;;;;;;10.83;100.00;100891.80;1740370;80;21067;-83
2022/11/12 19:47:15;;;;;;;12.00;7.28;;;;;;;10.84;100.00;100908.73;1702888;83;21099;-82
2022/11/12 19:50:00;;;;;;;11.68;6.78;;;;;;;10.83;100.00;100890.45;1749447;80;21063;-78
2022/11/12 19:52:45;;;;;;;9.38;8.48;;;;;;;10.83;100.00;100898.52;1766902;80;21079;-76
2022/11/12 19:55:32;;;;;;;8.35;7.35;;;;;;;10.84;100.00;100889.38;1743481;81;22442;-77
2022/11/12 19:58:17;;;;;;;7.45;6.65;;;;;;;10.88;100.00;100881.70;1720058;82;21102;-76
2022/11/12 20:01:09;;;;;;;6.87;6.17;;;;;;;10.88;100.00;100886.56;1711650;82;21020;-78
2022/11/12 20:03:54;;;;;;;8.48;6.45;;;;;;;10.87;100.00;100867.94;1708752;82;21097;-80
2022/11/12 20:06:39;;;;;;;7.00;6.28;;;;;;;10.87;100.00;100884.09;1683508;83;20988;-82
2022/11/12 20:09:24;;;;;;;8.83;5.60;;;;;;;10.87;100.00;100886.78;1716017;81;21110;-80
2022/11/12 20:12:10;;;;;;;7.25;6.55;;;;;;;10.85;100.00;100882.95;1712183;81;20982;-77
2022/11/12 20:14:55;;;;;;;10.05;5.75;;;;;;;10.86;100.00;100887.30;1716610;82;21112;-69
2022/11/12 20:17:40;;;;;;;7.22;6.25;;;;;;;10.88;100.00;100885.22;1713254;81;21025;-67
2022/11/12 20:20:25;;;;;;;7.55;5.75;;;;;;;10.88;100.00;100890.60;1710698;81;21049;-75
2022/11/12 20:23:10;;;;;;;7.60;6.12;;;;;;;10.88;100.00;100883.05;1707140;82;21052;-67
2022/11/12 20:26:05;;;;;;;6.87;6.28;;;;;;;10.92;100.00;100885.59;1679933;84;20962;-68
2022/11/12 20:28:50;;;;;;;6.62;5.50;;;;;;;10.94;100.00;100872.19;1684813;84;21496;-71
2022/11/12 20:31:36;;;;;;;7.28;6.53;;;;;;;10.98;100.00;100877.15;1718141;81;21148;-79
2022/11/12 20:34:30;;;;;;;9.83;6.42;;;;;;;10.99;100.00;100893.06;1713347;83;21083;-80
2022/11/12 20:37:17;;;;;;;5.97;5.37;;;;;;;10.99;100.00;100874.22;1673304;83;21340;-77
2022/11/12 20:40:03;;;;;;;8.23;5.65;;;;;;;11.02;100.00;100872.96;1739078;80;20990;-75
2022/11/12 20:42:49;;;;;;;6.58;5.58;;;;;;;11.02;100.00;100867.58;1734995;81;20975;-74
2022/11/12 20:45:35;;;;;;;8.20;5.72;;;;;;;11.06;100.00;100875.50;1743536;80;21023;-73
2022/11/12 20:48:20;;;;;;;7.10;5.62;;;;;;;11.07;100.00;100866.38;1746646;80;21735;-72
2022/11/12 20:51:19;;;;;;;6.45;5.80;;;;;;;11.08;100.00;100865.34;1743635;80;22134;-73
2022/11/12 20:54:04;;;;;;;9.30;5.08;;;;;;;11.08;100.00;100867.48;1736711;78;21030;-74
2022/11/12 20:56:52;;;;;;;7.15;5.45;;;;;;;11.10;100.00;100862.70;1742948;80;21063;-73
2022/11/12 20:59:40;;;;;;;8.13;7.42;;;;;;;11.13;100.00;100864.12;1722053;81;20996;-71
2022/11/12 21:02:25;;;;;;;8.10;5.92;;;;;;;11.13;100.00;100855.52;1729087;80;21561;-74
2022/11/12 21:05:10;;;;;;;5.25;4.75;;;;;;;11.14;99.75;100855.83;1742140;79;21568;-75
2022/11/12 21:07:56;;;;;;;6.97;6.28;;;;;;;11.12;99.51;100861.98;1745714;80;21533;-68
2022/11/12 21:10:41;;;;;;;7.97;6.12;;;;;;;11.10;99.18;100846.55;1736745;79;21532;-67
2022/11/12 21:13:27;;;;;;;7.42;5.17;;;;;;;11.08;99.22;100843.80;1747352;79;21139;-68
2022/11/12 21:16:13;;;;;;;8.00;5.95;;;;;;;11.06;99.12;100852.09;1745544;80;21082;-69
2022/11/12 21:19:00;;;;;;;6.28;5.37;;;;;;;11.07;99.19;100849.70;1740293;80;21167;-69
2022/11/12 21:21:45;;;;;;;7.97;5.33;;;;;;;11.08;99.10;100855.37;1744636;80;21479;-69
2022/11/12 21:24:31;;;;;;;5.92;4.80;;;;;;;11.12;98.95;100858.45;1742466;80;21071;-70
2022/11/12 21:27:17;;;;;;;7.72;4.65;;;;;;;11.12;98.78;100855.77;1742964;81;20974;-71
2022/11/12 21:30:05;;;;;;;13.80;6.22;;;;;;;11.11;98.51;100862.19;1741631;81;21212;-70
2022/11/12 21:32:50;;;;;;;7.55;5.12;;;;;;;11.07;98.33;100873.94;1729078;80;21234;-71
2022/11/12 21:35:37;;;;;;;5.35;4.80;;;;;;;11.05;98.20;100857.17;1708229;81;21471;-72
2022/11/12 21:38:22;;;;;;;7.17;5.80;;;;;;;11.06;98.17;100859.34;1695161;81;21055;-68
2022/11/12 21:41:11;;;;;;;6.55;5.20;;;;;;;11.07;98.01;100871.77;1710575;82;21521;-69
2022/11/12 21:43:55;;;;;;;5.15;4.65;;;;;;;11.05;97.83;100859.87;1740794;82;21091;-69
2022/11/12 21:46:40;;;;;;;6.30;4.40;;;;;;;11.05;97.76;100869.81;1741142;82;21268;-68
2022/11/12 21:49:25;;;;;;;6.58;4.85;;;;;;;11.04;97.52;100866.29;1704272;83;21100;-69
2022/11/12 21:52:11;;;;;;;5.30;4.80;;;;;;;11.02;97.18;100875.13;1711650;81;22310;-70
2022/11/12 21:54:58;;;;;;;4.30;3.98;;;;;;;11.00;96.92;100859.72;1723716;81;21012;-70
2022/11/12 21:57:44;;;;;;;4.75;4.10;;;;;;;10.99;96.56;100865.31;1730632;82;20986;-73
2022/11/12 22:00:29;;;;;;;5.60;4.53;;;;;;;10.98;96.44;100871.25;1695991;82;21102;-69
2022/11/12 22:03:14;;;;;;;4.92;4.42;;;;;;;10.98;96.09;100875.28;1718412;81;20987;-74
2022/11/12 22:06:00;;;;;;;4.78;4.28;;;;;;;10.96;95.77;100880.05;1695302;83;21017;-74
2022/11/12 22:08:46;;;;;;;4.60;4.10;;;;;;;10.96;95.71;100888.66;1709391;82;21120;-74
2022/11/12 22:11:31;;;;;;;4.35;3.80;;;;;;;10.94;95.02;100893.73;1699521;81;21085;-72